Time;durP1;ratioP1;P1;durP2;ratioP2;P2;SDS_P1;SDS_P2;PMS_P1;PMS_P2;Temp;Humidity;BMP_temperature;BMP_pressure;BME280_temperature;BME280_humidity;BME280_pressure;Samples;Min_cycle;Max_cycle;Signal;HPM_P1;HPM_P2
2024/01/26 00:00:25;;;;;;;17.60;12.15;;;;;;;4.51;100.00;93175.19;4850278;29;20083;-80
2024/01/26 00:02:58;;;;;;;21.08;12.35;;;;;;;4.47;100.00;93172.25;4851198;29;20057;-81
2024/01/26 00:05:58;;;;;;;22.13;12.13;;;;;;;4.45;100.00;93181.28;4833362;29;20048;-81
2024/01/26 00:12:17;;;;;;;20.83;11.63;;;;;;;4.37;100.00;93170.28;4849752;29;20052;-81
2024/01/26 00:15:23;;;;;;;22.85;12.65;;;;;;;4.34;100.00;93173.31;4851216;29;20085;-81
2024/01/26 00:17:54;;;;;;;17.58;10.88;;;;;;;4.33;100.00;93166.56;4850723;29;20071;-80
2024/01/26 00:20:25;;;;;;;16.23;11.25;;;;;;;4.31;100.00;93167.81;4850219;29;20050;-79
2024/01/26 00:23:12;;;;;;;17.25;11.23;;;;;;;4.28;100.00;93156.13;4850960;29;20041;-79
2024/01/26 00:26:18;;;;;;;16.08;10.30;;;;;;;4.27;100.00;93151.94;4851220;29;20044;-79
2024/01/26 00:29:00;;;;;;;15.80;10.20;;;;;;;4.28;100.00;93153.53;4850265;29;20033;-80
2024/01/26 00:31:25;;;;;;;20.27;10.37;;;;;;;4.28;100.00;93153.53;4851409;29;20041;-80
2024/01/26 00:34:16;;;;;;;17.27;10.05;;;;;;;4.28;100.00;93145.75;4856817;29;20325;-81
2024/01/26 00:37:35;;;;;;;20.42;10.82;;;;;;;4.30;100.00;93137.72;4855815;29;20101;-80
2024/01/26 00:40:03;;;;;;;16.65;10.60;;;;;;;4.30;100.00;93143.72;4856231;29;20549;-80
2024/01/26 00:42:53;;;;;;;17.90;11.43;;;;;;;4.31;100.00;93142.69;4839218;29;20427;-80
2024/01/26 00:45:31;;;;;;;17.02;10.70;;;;;;;4.34;100.00;93142.22;4855028;29;20029;-80
2024/01/26 00:48:22;;;;;;;19.27;11.15;;;;;;;4.36;100.00;93142.00;4838706;29;20624;-79
2024/01/26 00:50:59;;;;;;;18.02;11.38;;;;;;;4.40;100.00;93137.13;4856228;29;20177;-80
2024/01/26 00:53:30;;;;;;;20.38;12.25;;;;;;;4.40;100.00;93137.94;4856547;29;20038;-80
2024/01/26 00:55:55;;;;;;;18.27;10.77;;;;;;;4.44;100.00;93135.66;4840036;29;20038;-81
2024/01/26 00:58:37;;;;;;;23.85;11.40;;;;;;;4.47;100.00;93137.78;4856300;29;20138;-80
2024/01/26 01:01:23;;;;;;;18.55;11.82;;;;;;;4.49;100.00;93141.72;4855892;29;20056;-79
2024/01/26 01:03:51;;;;;;;23.92;12.70;;;;;;;4.51;100.00;93144.88;4840511;29;20045;-80
2024/01/26 01:06:22;;;;;;;22.00;13.98;;;;;;;4.56;100.00;93134.56;4856796;29;20071;-80
2024/01/26 01:08:53;;;;;;;17.88;11.88;;;;;;;4.53;100.00;93135.06;4856001;29;20395;-80
2024/01/26 01:11:24;;;;;;;18.00;11.25;;;;;;;4.48;100.00;93140.16;4854138;29;20054;-80
2024/01/26 01:13:55;;;;;;;17.85;10.90;;;;;;;4.49;100.00;93144.31;4854669;29;20118;-80
2024/01/26 01:16:22;;;;;;;18.75;10.98;;;;;;;4.44;100.00;93156.41;4854808;29;20473;-80
2024/01/26 01:18:52;;;;;;;17.02;10.82;;;;;;;4.41;100.00;93146.47;4854568;29;20399;-79
2024/01/26 01:21:30;;;;;;;21.20;12.18;;;;;;;4.37;100.00;93152.13;4855550;29;20052;-81
2024/01/26 01:24:08;;;;;;;18.77;11.98;;;;;;;4.34;100.00;93152.56;4854307;29;20072;-81
2024/01/26 01:27:03;;;;;;;17.30;11.50;;;;;;;4.30;100.00;93151.50;4854289;29;20061;-81
2024/01/26 01:29:45;;;;;;;18.52;9.98;;;;;;;4.31;100.00;93147.09;4837741;29;20049;-80
2024/01/26 01:32:20;;;;;;;13.70;8.60;;;;;;;4.33;100.00;93148.44;4854004;29;20111;-81
2024/01/26 01:34:49;;;;;;;12.73;7.90;;;;;;;4.36;100.00;93154.94;4853528;29;20030;-81
2024/01/26 01:37:19;;;;;;;11.20;7.70;;;;;;;4.35;100.00;93151.56;4854305;29;20257;-81
2024/01/26 01:39:58;;;;;;;15.07;8.63;;;;;;;4.38;100.00;93164.06;4838323;29;20119;-81
2024/01/26 01:42:41;;;;;;;14.00;7.95;;;;;;;4.33;100.00;93158.78;4854068;29;20049;-80
2024/01/26 01:45:24;;;;;;;18.42;9.93;;;;;;;4.27;100.00;93149.34;4833623;29;20037;-81
2024/01/26 01:48:05;;;;;;;16.85;10.45;;;;;;;4.34;100.00;93159.56;4851430;29;20423;-80
2024/01/26 01:51:22;;;;;;;17.77;10.05;;;;;;;4.33;100.00;93158.00;4834709;29;20573;-81
2024/01/26 01:54:19;;;;;;;15.52;9.77;;;;;;;4.31;100.00;93158.22;4852090;29;20045;-79
2024/01/26 01:56:48;;;;;;;16.23;10.00;;;;;;;4.34;100.00;93152.56;4852180;29;20064;-80
2024/01/26 01:59:21;;;;;;;17.08;10.02;;;;;;;4.36;100.00;93152.34;4835713;29;20030;-80
2024/01/26 02:01:51;;;;;;;15.98;9.73;;;;;;;4.36;100.00;93145.38;4835268;29;20034;-79
2024/01/26 02:04:31;;;;;;;15.38;9.00;;;;;;;4.32;100.00;93141.69;4835286;29;20058;-80
2024/01/26 02:07:04;;;;;;;16.65;9.40;;;;;;;4.30;100.00;93154.09;4851568;29;20045;-80
2024/01/26 02:09:30;;;;;;;17.60;8.52;;;;;;;4.29;100.00;93152.50;4851332;29;20406;-80
2024/01/26 02:12:02;;;;;;;14.32;9.20;;;;;;;4.34;100.00;93160.34;4851152;29;20105;-80
2024/01/26 02:14:38;;;;;;;16.80;8.80;;;;;;;4.35;100.00;93163.75;4851322;29;20077;-80
2024/01/26 02:17:05;;;;;;;15.00;9.23;;;;;;;4.37;100.00;93156.53;4851269;29;20351;-80
2024/01/26 02:19:46;;;;;;;16.33;8.15;;;;;;;4.36;100.00;93154.94;4851476;29;20040;-80
2024/01/26 02:22:18;;;;;;;12.93;7.40;;;;;;;4.35;100.00;93151.56;4850839;29;20042;-80
2024/01/26 02:24:52;;;;;;;12.55;6.93;;;;;;;4.41;100.00;93151.66;4850660;29;20085;-80
2024/01/26 02:27:24;;;;;;;12.88;7.18;;;;;;;4.42;100.00;93159.22;4833815;29;20037;-81
2024/01/26 02:29:51;;;;;;;12.52;7.43;;;;;;;4.45;100.00;93160.56;4850909;29;20045;-80
2024/01/26 02:32:47;;;;;;;13.35;7.35;;;;;;;4.46;100.00;93162.13;4851457;29;20107;-80
2024/01/26 02:35:29;;;;;;;12.43;7.00;;;;;;;4.47;100.00;93155.94;4835004;29;20045;-80
2024/01/26 02:38:08;;;;;;;11.15;6.75;;;;;;;4.49;100.00;93153.91;4851942;29;20050;-80
2024/01/26 02:40:48;;;;;;;11.55;6.47;;;;;;;4.46;100.00;93154.34;4851805;29;20503;-81
2024/01/26 02:43:14;;;;;;;8.95;5.80;;;;;;;4.45;100.00;93152.78;4835361;29;20052;-80
2024/01/26 02:46:07;;;;;;;9.93;5.63;;;;;;;4.43;100.00;93147.03;4851914;29;20117;-80
2024/01/26 02:48:47;;;;;;;9.32;5.30;;;;;;;4.42;100.00;93145.47;4851360;29;20049;-80
2024/01/26 02:51:12;;;;;;;12.00;5.63;;;;;;;4.43;100.00;93144.44;4850703;29;20414;-80
2024/01/26 02:54:13;;;;;;;12.35;5.30;;;;;;;4.40;100.00;93150.88;4849687;29;20030;-81
2024/01/26 02:56:56;;;;;;;9.30;5.40;;;;;;;4.36;100.00;93147.97;4835110;29;20502;-80
2024/01/26 02:59:31;;;;;;;10.77;5.13;;;;;;;4.36;100.00;93147.97;4850703;29;20515;-80
2024/01/26 03:02:09;;;;;;;9.35;5.47;;;;;;;4.38;100.00;93156.28;4850887;29;20038;-80
2024/01/26 03:04:59;;;;;;;10.98;5.75;;;;;;;4.37;100.00;93154.72;4850687;29;20057;-80
2024/01/26 03:08:05;;;;;;;7.60;4.18;;;;;;;4.38;100.00;93151.09;4850063;29;20506;-79
2024/01/26 03:10:50;;;;;;;8.00;4.82;;;;;;;4.37;100.00;93148.75;4832931;29;20052;-81
2024/01/26 03:13:20;;;;;;;7.72;4.80;;;;;;;4.38;100.00;93152.91;4849243;29;20092;-80
2024/01/26 03:15:49;;;;;;;9.85;5.70;;;;;;;4.34;100.00;93134.44;4833034;29;20506;-80
2024/01/26 03:18:19;;;;;;;9.85;5.88;;;;;;;4.38;100.00;93139.97;4849474;29;20046;-81
2024/01/26 03:20:47;;;;;;;9.90;5.63;;;;;;;4.35;100.00;93146.41;4849177;29;20046;-79
2024/01/26 03:23:36;;;;;;;9.65;5.63;;;;;;;4.32;100.00;93140.88;4818453;29;20045;-79
2024/01/26 03:26:18;;;;;;;10.38;5.80;;;;;;;4.32;100.00;93146.88;4849300;29;20537;-80
2024/01/26 03:28:48;;;;;;;11.17;5.40;;;;;;;4.31;100.00;93147.88;4833102;29;20084;-80
2024/01/26 03:31:15;;;;;;;10.57;5.93;;;;;;;4.27;100.00;93144.16;4849088;29;20046;-78
2024/01/26 03:33:52;;;;;;;10.23;5.55;;;;;;;4.28;100.00;93150.94;4849831;29;20030;-80
2024/01/26 03:36:26;;;;;;;12.90;6.18;;;;;;;4.28;100.00;93147.53;4849503;29;20042;-79
2024/01/26 03:38:56;;;;;;;11.13;6.55;;;;;;;4.29;100.00;93154.31;4849612;29;20058;-80
2024/01/26 03:41:40;;;;;;;10.18;6.03;;;;;;;4.29;100.00;93155.09;4848924;29;20042;-80
2024/01/26 03:44:10;;;;;;;10.95;5.80;;;;;;;4.29;100.00;93154.31;4848960;29;20098;-80
2024/01/26 03:46:45;;;;;;;11.10;5.88;;;;;;;4.29;100.00;93147.31;4849114;29;20045;-78
2024/01/26 03:49:47;;;;;;;9.80;5.70;;;;;;;4.30;100.00;93156.69;4849327;29;20050;-79
2024/01/26 03:52:13;;;;;;;9.57;5.88;;;;;;;4.27;100.00;93151.94;4847495;29;20030;-79
2024/01/26 03:54:42;;;;;;;12.43;5.88;;;;;;;4.27;100.00;93154.53;4848901;29;20611;-81
2024/01/26 03:57:09;;;;;;;9.23;5.45;;;;;;;4.27;100.00;93156.34;4849255;29;20046;-80
2024/01/26 03:59:38;;;;;;;9.98;5.68;;;;;;;4.27;100.00;93159.72;4832650;29;20034;-78
2024/01/26 04:02:05;;;;;;;8.27;5.30;;;;;;;4.28;100.00;93163.09;4849472;29;20388;-79
2024/01/26 04:04:38;;;;;;;10.90;5.30;;;;;;;4.26;100.00;93155.56;4849188;29;20117;-80
2024/01/26 04:07:20;;;;;;;10.93;5.47;;;;;;;4.28;100.00;93158.72;4848483;29;20042;-79
2024/01/26 04:09:45;;;;;;;9.50;5.00;;;;;;;4.30;100.00;93148.91;4849778;29;20128;-79
2024/01/26 04:12:12;;;;;;;13.05;5.55;;;;;;;4.28;100.00;93153.53;4849425;29;20511;-80
2024/01/26 04:14:39;;;;;;;10.85;5.90;;;;;;;4.30;100.00;93150.69;4817595;29;20069;-80
2024/01/26 04:17:06;;;;;;;8.30;5.30;;;;;;;4.32;100.00;93153.84;4848707;29;20049;-80
2024/01/26 04:19:59;;;;;;;9.60;5.35;;;;;;;4.33;100.00;93153.63;4848371;29;20045;-80
2024/01/26 04:22:37;;;;;;;9.95;5.40;;;;;;;4.31;100.00;93153.06;4850005;29;20074;-80
2024/01/26 04:25:46;;;;;;;9.05;4.88;;;;;;;4.28;100.00;93157.91;4849646;29;20037;-80
2024/01/26 04:28:56;;;;;;;9.95;5.60;;;;;;;4.23;100.00;93145.63;4833187;29;20068;-80
2024/01/26 04:31:44;;;;;;;8.52;4.95;;;;;;;4.20;100.00;93151.28;4848975;29;20026;-79
2024/01/26 04:34:16;;;;;;;10.30;4.75;;;;;;;4.20;100.00;93160.88;4850620;29;20050;-81
2024/01/26 04:36:47;;;;;;;11.65;5.25;;;;;;;4.22;100.00;93159.63;4849356;29;20037;-81
2024/01/26 04:39:19;;;;;;;8.05;4.70;;;;;;;4.21;100.00;93155.47;4850199;29;20046;-80
2024/01/26 04:42:18;;;;;;;7.85;4.05;;;;;;;4.25;100.00;93148.78;4832992;29;20067;-79
2024/01/26 04:44:44;;;;;;;8.50;3.95;;;;;;;4.27;100.00;93158.94;4849414;29;20121;-81
2024/01/26 04:47:56;;;;;;;8.57;4.78;;;;;;;4.29;100.00;93157.69;4850174;29;20136;-80
2024/01/26 04:50:39;;;;;;;10.88;4.90;;;;;;;4.31;100.00;93158.22;4834174;29;20395;-80
2024/01/26 04:53:15;;;;;;;7.38;4.65;;;;;;;4.35;100.00;93166.34;4849458;29;20053;-79
2024/01/26 04:55:44;;;;;;;10.00;5.07;;;;;;;4.35;100.00;93156.75;4848698;29;20519;-80
2024/01/26 04:58:13;;;;;;;7.72;4.65;;;;;;;4.34;100.00;93164.75;4848843;29;20041;-80
2024/01/26 05:00:48;;;;;;;8.98;4.85;;;;;;;4.31;100.00;93152.28;4832303;29;20049;-80
2024/01/26 05:03:47;;;;;;;9.05;4.78;;;;;;;4.43;100.00;93160.00;4849004;29;20538;-80
2024/01/26 05:06:16;;;;;;;9.38;4.93;;;;;;;4.40;100.00;93160.47;4848597;29;20101;-81
2024/01/26 05:08:42;;;;;;;8.77;4.93;;;;;;;4.41;100.00;93162.03;4832683;29;20411;-80
2024/01/26 05:11:19;;;;;;;10.98;4.75;;;;;;;4.45;100.00;93160.56;4848155;29;20095;-81
2024/01/26 05:13:46;;;;;;;7.32;4.35;;;;;;;4.53;100.00;93167.97;4848404;29;20190;-80
2024/01/26 05:16:18;;;;;;;12.55;4.10;;;;;;;4.65;100.00;93160.91;4848038;29;20049;-79
2024/01/26 05:18:51;;;;;;;9.48;4.72;;;;;;;4.69;100.00;93174.22;4850279;29;20128;-81
2024/01/26 05:21:32;;;;;;;9.48;4.63;;;;;;;4.71;100.00;93167.00;4835584;29;20075;-80
2024/01/26 05:24:20;;;;;;;7.60;4.38;;;;;;;4.74;100.00;93172.50;4851852;29;20124;-81
2024/01/26 05:26:54;;;;;;;11.18;5.30;;;;;;;4.76;100.00;93167.84;4851191;29;20052;-80
2024/01/26 05:29:26;;;;;;;10.43;5.30;;;;;;;4.78;100.00;93170.22;4851540;29;20052;-81
2024/01/26 05:31:54;;;;;;;8.88;4.90;;;;;;;4.79;100.00;93167.38;4834065;29;20117;-81
2024/01/26 05:34:42;;;;;;;8.57;5.18;;;;;;;4.80;100.00;93163.78;4851396;29;20045;-79
2024/01/26 05:37:10;;;;;;;10.20;5.03;;;;;;;4.80;100.00;93163.00;4851142;29;20038;-81
2024/01/26 05:39:36;;;;;;;8.77;4.70;;;;;;;4.78;100.00;93158.03;4850659;29;20033;-81
2024/01/26 05:42:09;;;;;;;8.23;4.22;;;;;;;4.79;100.00;93169.19;4848105;29;20141;-80
2024/01/26 05:44:47;;;;;;;7.15;4.28;;;;;;;4.78;100.00;93183.19;4846831;29;20365;-80
2024/01/26 05:47:12;;;;;;;9.75;4.53;;;;;;;4.73;100.00;93183.91;4844932;29;20076;-83
2024/01/26 05:49:39;;;;;;;8.32;4.30;;;;;;;4.71;100.00;93193.72;4845094;29;20438;-81
2024/01/26 05:52:18;;;;;;;5.63;3.58;;;;;;;4.65;100.00;93189.44;4840657;29;20053;-80
2024/01/26 05:54:50;;;;;;;6.82;3.60;;;;;;;4.65;100.00;93194.63;4857896;29;20033;-79
2024/01/26 05:57:31;;;;;;;5.67;3.13;;;;;;;4.69;100.00;93184.59;4836857;29;20046;-81
2024/01/26 05:59:57;;;;;;;6.82;2.90;;;;;;;4.65;100.00;93189.44;4853086;29;20046;-79
2024/01/26 06:02:23;;;;;;;7.25;3.00;;;;;;;4.63;100.00;93183.69;4851421;29;20030;-79
2024/01/26 06:04:50;;;;;;;6.40;3.50;;;;;;;4.63;100.00;93185.50;4828897;29;20170;-80
2024/01/26 06:07:16;;;;;;;6.40;3.40;;;;;;;4.61;100.00;93201.31;4828767;29;20396;-81
2024/01/26 06:09:54;;;;;;;5.68;2.90;;;;;;;4.60;100.00;93197.16;4836628;29;20042;-80
2024/01/26 06:12:32;;;;;;;5.47;3.00;;;;;;;4.58;100.00;93204.38;4853749;29;20048;-80
2024/01/26 06:15:03;;;;;;;5.90;3.20;;;;;;;4.53;100.00;93201.69;4834859;29;20046;-79
2024/01/26 06:17:46;;;;;;;6.05;2.97;;;;;;;4.49;100.00;93206.53;4832837;29;20460;-79
2024/01/26 06:20:12;;;;;;;6.30;2.88;;;;;;;4.46;100.00;93208.78;4832232;29;20043;-80
2024/01/26 06:22:44;;;;;;;5.57;2.70;;;;;;;4.44;100.00;93214.22;4832685;29;20035;-79
2024/01/26 06:25:10;;;;;;;5.03;2.72;;;;;;;4.47;100.00;93218.94;4831290;29;20046;-80
2024/01/26 06:27:37;;;;;;;4.30;2.50;;;;;;;4.48;100.00;93214.53;4835013;29;20052;-80
2024/01/26 06:30:03;;;;;;;6.40;2.92;;;;;;;4.48;100.00;93219.72;4844530;29;20110;-80
2024/01/26 06:32:29;;;;;;;5.10;2.92;;;;;;;4.48;100.00;93230.09;4831971;29;20053;-79
2024/01/26 06:34:54;;;;;;;5.90;2.97;;;;;;;4.59;100.00;93224.06;4831891;29;20042;-79
2024/01/26 06:37:21;;;;;;;5.68;2.92;;;;;;;4.65;100.00;93230.94;4838615;29;20049;-80
2024/01/26 06:39:48;;;;;;;5.45;3.08;;;;;;;4.67;100.00;93233.31;4829537;29;20110;-80
2024/01/26 06:42:14;;;;;;;5.82;2.92;;;;;;;4.66;100.00;93242.91;4826392;29;20050;-79
2024/01/26 06:44:40;;;;;;;4.82;2.50;;;;;;;4.64;100.00;93242.34;4823451;29;20046;-79
2024/01/26 06:47:05;;;;;;;6.63;2.78;;;;;;;4.63;100.00;93238.16;4822942;29;20046;-78
2024/01/26 06:49:31;;;;;;;5.85;2.65;;;;;;;4.65;100.00;93236.13;4823378;29;20055;-78
2024/01/26 06:51:56;;;;;;;4.22;2.30;;;;;;;4.63;100.00;93238.16;4825897;29;20453;-79
2024/01/26 06:54:22;;;;;;;6.18;2.47;;;;;;;4.68;100.00;93245.25;4825393;29;20253;-77
2024/01/26 06:56:47;;;;;;;5.72;2.70;;;;;;;4.74;100.00;93247.72;4825681;29;20109;-78
2024/01/26 06:59:13;;;;;;;4.38;2.25;;;;;;;4.79;100.00;93254.78;4825796;29;20043;-78
2024/01/26 07:01:39;;;;;;;4.78;2.78;;;;;;;5.02;100.00;93266.88;4823558;29;20046;-77
2024/01/26 07:04:04;;;;;;;4.05;2.17;;;;;;;5.21;98.53;93268.28;4824714;29;20031;-79
2024/01/26 07:06:30;;;;;;;4.07;2.17;;;;;;;5.32;98.62;93265.88;4824941;29;20047;-78
2024/01/26 07:08:55;;;;;;;3.63;1.98;;;;;;;5.36;97.79;93272.16;4824358;29;20132;-78
2024/01/26 07:11:22;;;;;;;4.70;1.83;;;;;;;5.36;97.75;93270.34;4824551;29;20114;-78
2024/01/26 07:13:47;;;;;;;4.40;2.40;;;;;;;6.04;91.71;93267.78;4833328;29;20053;-79
2024/01/26 07:16:13;;;;;;;4.10;2.00;;;;;;;6.97;91.76;93256.69;4841540;29;20053;-79
2024/01/26 07:18:39;;;;;;;5.88;2.35;;;;;;;8.01;80.46;93252.88;4841637;29;20081;-78
2024/01/26 07:21:08;;;;;;;4.78;2.35;;;;;;;8.74;78.72;93266.06;4842795;29;20041;-78
2024/01/26 07:23:34;;;;;;;5.72;2.65;;;;;;;9.57;74.18;93273.06;4841574;29;20546;-79
2024/01/26 07:26:00;;;;;;;5.22;2.75;;;;;;;10.41;68.47;93264.94;4841225;29;20837;-79
2024/01/26 07:28:27;;;;;;;4.85;2.70;;;;;;;11.13;64.62;93262.84;4840886;29;20101;-78
2024/01/26 07:30:52;;;;;;;5.53;2.97;;;;;;;11.91;60.52;93268.38;4839981;29;20058;-78
2024/01/26 07:33:18;;;;;;;6.00;2.80;;;;;;;12.67;56.88;93259.78;4808296;29;20115;-79
2024/01/26 07:35:43;;;;;;;5.28;3.05;;;;;;;13.46;50.94;93263.84;4839513;29;20495;-80
2024/01/26 07:38:09;;;;;;;6.38;3.03;;;;;;;13.94;50.52;93259.19;4838624;29;20049;-80
2024/01/26 07:40:35;;;;;;;4.97;2.70;;;;;;;14.43;47.48;93259.69;4838690;29;20046;-79
2024/01/26 07:43:00;;;;;;;5.47;3.10;;;;;;;14.67;46.24;93264.81;4838839;29;20510;-80
2024/01/26 07:45:26;;;;;;;6.68;3.60;;;;;;;15.23;44.62;93260.31;4823000;29;20037;-80
2024/01/26 07:47:52;;;;;;;7.28;3.22;;;;;;;15.95;42.36;93264.81;4838884;29;20046;-80
2024/01/26 07:50:18;;;;;;;5.22;3.00;;;;;;;16.31;42.16;93271.13;4838999;29;20038;-79
2024/01/26 07:52:43;;;;;;;5.57;2.88;;;;;;;16.80;40.87;93286.00;4839087;29;20098;-79
2024/01/26 07:55:09;;;;;;;6.15;3.63;;;;;;;17.34;38.71;93282.41;4838470;29;20046;-79
2024/01/26 07:57:37;;;;;;;4.90;3.22;;;;;;;17.61;37.51;93286.69;4838567;29;20046;-78
2024/01/26 08:00:05;;;;;;;5.57;3.10;;;;;;;18.30;36.33;93291.97;4822911;29;20094;-79
2024/01/26 08:02:31;;;;;;;4.95;3.10;;;;;;;18.79;34.16;93305.00;4822894;29;20399;-79
2024/01/26 08:04:57;;;;;;;5.68;3.33;;;;;;;19.28;34.07;93300.13;4823113;29;20042;-79
2024/01/26 08:07:23;;;;;;;6.13;2.78;;;;;;;19.44;32.63;93299.59;4839058;29;20538;-80
2024/01/26 08:09:49;;;;;;;9.20;6.85;;;;;;;20.18;34.01;93298.91;4839768;29;20068;-80
2024/01/26 08:12:15;;;;;;;9.77;5.13;;;;;;;20.56;32.73;93297.19;4838892;29;20528;-80
2024/01/26 08:14:40;;;;;;;8.27;3.30;;;;;;;20.63;32.43;93297.44;4838423;29;20422;-79
2024/01/26 08:17:06;;;;;;;6.80;3.88;;;;;;;20.72;31.63;93297.34;4838659;29;20042;-80
2024/01/26 08:19:32;;;;;;;12.57;9.35;;;;;;;21.28;32.15;93278.19;4822210;29;20030;-78
2024/01/26 08:21:58;;;;;;;12.93;9.70;;;;;;;20.89;34.25;93286.50;4837981;29;20414;-79
2024/01/26 08:24:24;;;;;;;13.77;9.75;;;;;;;19.68;34.34;93296.28;4838290;29;20034;-80
2024/01/26 08:26:49;;;;;;;13.85;10.43;;;;;;;19.59;36.21;93287.59;4839266;29;20502;-80
2024/01/26 08:29:15;;;;;;;9.70;7.88;;;;;;;19.22;34.15;93290.00;4839117;29;20049;-80
2024/01/26 08:31:40;;;;;;;12.45;9.35;;;;;;;19.39;35.11;93289.16;4822869;29;20034;-80
2024/01/26 08:34:06;;;;;;;11.98;9.32;;;;;;;18.58;36.65;93299.59;4839197;29;20102;-79
2024/01/26 08:36:31;;;;;;;14.93;10.10;;;;;;;18.45;37.65;93295.25;4838492;29;20046;-79
2024/01/26 08:38:57;;;;;;;11.57;9.45;;;;;;;18.83;37.66;93300.63;4822544;29;20030;-80
2024/01/26 08:41:22;;;;;;;12.70;9.35;;;;;;;19.33;37.61;93307.91;4838947;29;20039;-80
2024/01/26 08:43:48;;;;;;;12.93;10.20;;;;;;;19.44;36.35;93310.97;4837005;29;20133;-80
2024/01/26 08:46:13;;;;;;;12.52;9.68;;;;;;;18.80;36.40;93303.13;4822346;29;20515;-80
2024/01/26 08:48:40;;;;;;;11.80;9.00;;;;;;;18.58;36.46;93306.75;4839951;29;20535;-80
2024/01/26 08:51:07;;;;;;;13.43;9.57;;;;;;;19.96;35.49;93304.56;4823544;29;20046;-79
2024/01/26 08:53:32;;;;;;;12.82;9.82;;;;;;;20.30;34.52;93306.16;4840730;29;20046;-79
2024/01/26 08:55:58;;;;;;;13.98;8.70;;;;;;;19.96;35.33;93304.56;4843620;29;20070;-79
2024/01/26 08:58:23;;;;;;;11.85;8.95;;;;;;;20.65;33.89;93310.38;4837336;29;20094;-79
2024/01/26 09:00:49;;;;;;;12.68;8.57;;;;;;;21.46;32.57;93302.75;4833240;29;20034;-78
2024/01/26 09:03:14;;;;;;;13.52;9.23;;;;;;;20.28;33.64;93303.03;4842266;29;20034;-80
2024/01/26 09:05:40;;;;;;;12.43;9.18;;;;;;;18.80;35.41;93311.88;4825343;29;20041;-80
2024/01/26 09:08:05;;;;;;;12.05;8.68;;;;;;;18.81;36.13;93313.44;4848471;29;20110;-81
2024/01/26 09:10:31;;;;;;;12.98;8.77;;;;;;;18.24;36.44;93314.44;4847621;29;20030;-80
2024/01/26 09:12:57;;;;;;;12.07;8.38;;;;;;;17.42;38.58;93321.34;4850847;29;20038;-79
2024/01/26 09:15:22;;;;;;;13.73;9.85;;;;;;;16.86;41.35;93315.72;4829945;29;20072;-78
2024/01/26 09:17:48;;;;;;;16.10;10.65;;;;;;;15.74;43.64;93316.53;4849990;29;20034;-79
2024/01/26 09:20:14;;;;;;;13.23;9.40;;;;;;;14.34;47.68;93328.06;4852001;29;20038;-79
2024/01/26 09:22:39;;;;;;;14.52;9.45;;;;;;;14.12;47.87;93333.94;4846431;29;20101;-78
2024/01/26 09:25:05;;;;;;;14.18;9.10;;;;;;;13.80;49.39;93334.66;4849644;29;20512;-79
2024/01/26 09:27:31;;;;;;;15.23;9.95;;;;;;;14.60;48.05;93335.56;4829982;29;20061;-80
2024/01/26 09:29:56;;;;;;;13.48;9.05;;;;;;;14.85;47.36;93323.78;4828528;29;20034;-80
2024/01/26 09:32:22;;;;;;;17.48;9.77;;;;;;;14.85;47.04;93333.56;4834448;29;20113;-79
2024/01/26 09:34:48;;;;;;;16.58;10.95;;;;;;;14.85;48.53;93333.56;4852668;29;20170;-80
2024/01/26 09:37:13;;;;;;;20.33;12.68;;;;;;;14.40;50.88;93338.50;4852652;29;20022;-81
2024/01/26 09:39:41;;;;;;;17.23;12.35;;;;;;;14.15;51.66;93337.84;4866734;29;20264;-77
2024/01/26 09:42:09;;;;;;;20.17;12.25;;;;;;;14.17;52.95;93335.72;4847444;29;20153;-79
2024/01/26 09:44:34;;;;;;;19.02;11.93;;;;;;;13.46;56.29;93345.38;4831084;29;20126;-78
2024/01/26 09:47:03;;;;;;;16.13;11.70;;;;;;;12.96;58.94;93350.91;4833366;29;20562;-77
2024/01/26 09:49:29;;;;;;;17.92;12.02;;;;;;;12.56;60.40;93362.59;4847200;29;20052;-78
2024/01/26 09:51:55;;;;;;;16.08;11.80;;;;;;;12.23;61.24;93365.78;4847723;29;20499;-78
2024/01/26 09:54:21;;;;;;;16.42;11.48;;;;;;;11.67;63.46;93379.22;4841854;29;20351;-78
2024/01/26 09:56:48;;;;;;;14.63;10.85;;;;;;;11.35;65.56;93369.94;4841847;29;20138;-78
2024/01/26 09:59:14;;;;;;;19.48;12.30;;;;;;;10.98;67.86;93384.19;4842934;29;20391;-79
2024/01/26 10:01:41;;;;;;;17.83;12.18;;;;;;;11.29;67.40;93389.34;4843270;29;20534;-79
2024/01/26 10:04:10;;;;;;;18.70;11.60;;;;;;;11.82;65.55;93386.19;4825153;29;20042;-80
2024/01/26 10:06:36;;;;;;;16.85;11.88;;;;;;;11.83;65.83;93393.81;4841401;29;20434;-80
2024/01/26 10:09:03;;;;;;;18.15;11.88;;;;;;;12.17;62.15;93387.84;4834658;29;20038;-80
2024/01/26 10:11:31;;;;;;;15.65;10.57;;;;;;;12.13;63.52;93399.19;4828020;29;20031;-80
2024/01/26 10:13:56;;;;;;;16.33;11.52;;;;;;;12.00;63.72;93400.56;4822412;29;20037;-78
2024/01/26 10:16:22;;;;;;;12.75;8.73;;;;;;;12.03;62.00;93392.16;4841978;29;20125;-79
2024/01/26 10:18:48;;;;;;;12.63;8.77;;;;;;;11.95;60.50;93385.63;4841048;29;20506;-81
2024/01/26 10:21:15;;;;;;;13.27;8.23;;;;;;;12.00;59.81;93387.44;4845633;29;20042;-78
2024/01/26 10:23:41;;;;;;;15.98;11.32;;;;;;;11.43;67.83;93395.56;4852862;29;20109;-78
2024/01/26 10:26:10;;;;;;;15.50;11.55;;;;;;;10.99;71.70;93391.03;4848756;29;20114;-79
2024/01/26 10:28:37;;;;;;;22.02;14.10;;;;;;;10.85;73.03;93400.47;4842124;29;20037;-77
2024/01/26 10:31:02;;;;;;;17.30;12.50;;;;;;;10.94;74.60;93398.91;4848530;29;20051;-78
2024/01/26 10:33:31;;;;;;;16.60;11.82;;;;;;;11.27;72.90;93396.69;4842492;29;20132;-78
2024/01/26 10:36:00;;;;;;;18.77;11.25;;;;;;;11.55;70.76;93386.59;4836845;29;20053;-78
2024/01/26 10:38:29;;;;;;;18.70;12.57;;;;;;;11.78;69.82;93385.19;4846275;29;20081;-78
2024/01/26 10:41:04;;;;;;;24.35;14.27;;;;;;;11.36;72.51;93381.97;4842014;29;20047;-79
2024/01/26 10:43:31;;;;;;;20.15;13.48;;;;;;;11.12;73.97;93373.16;4824316;29;20046;-78
2024/01/26 10:45:57;;;;;;;16.83;10.73;;;;;;;10.81;74.25;93368.78;4843658;29;20406;-78
2024/01/26 10:48:27;;;;;;;22.35;11.45;;;;;;;11.03;73.46;93384.19;4843147;29;20488;-80
2024/01/26 10:50:55;;;;;;;15.73;10.10;;;;;;;11.40;70.89;93382.22;4826305;29;20058;-79
2024/01/26 10:53:21;;;;;;;13.43;8.30;;;;;;;11.41;70.76;93371.47;4841208;29;20030;-78
2024/01/26 10:55:49;;;;;;;21.08;12.60;;;;;;;11.29;74.26;93380.72;4841217;29;20048;-79
2024/01/26 10:58:16;;;;;;;21.80;14.88;;;;;;;11.48;74.32;93380.88;4843882;29;20073;-77
2024/01/26 11:00:41;;;;;;;18.42;12.23;;;;;;;11.70;71.94;93370.03;4841654;29;20545;-78
2024/01/26 11:03:09;;;;;;;19.52;13.68;;;;;;;11.94;70.99;93370.19;4840337;29;20050;-80
2024/01/26 11:05:34;;;;;;;21.15;14.40;;;;;;;11.56;74.63;93375.84;4843522;29;20125;-78
2024/01/26 11:08:04;;;;;;;20.67;15.27;;;;;;;11.40;71.86;93380.38;4841456;29;20070;-76
2024/01/26 11:10:30;;;;;;;19.67;13.43;;;;;;;11.85;71.86;93370.72;4842544;29;20045;-78
2024/01/26 11:13:05;;;;;;;21.15;13.43;;;;;;;11.92;68.73;93374.91;4841093;29;20037;-79
2024/01/26 11:15:34;;;;;;;21.95;13.93;;;;;;;11.96;68.18;93370.69;4839860;29;20049;-78
2024/01/26 11:18:00;;;;;;;19.60;12.88;;;;;;;12.33;66.83;93369.38;4841075;29;20026;-78
2024/01/26 11:20:31;;;;;;;18.98;12.88;;;;;;;12.58;65.33;93361.28;4840211;29;20042;-79
2024/01/26 11:23:00;;;;;;;18.73;12.32;;;;;;;12.84;64.86;93353.94;4840151;29;20053;-78
2024/01/26 11:25:31;;;;;;;18.85;11.95;;;;;;;13.47;64.02;93349.59;4840259;29;20046;-78
2024/01/26 11:27:59;;;;;;;23.65;14.35;;;;;;;13.67;61.66;93351.19;4840044;29;20129;-78
2024/01/26 11:30:26;;;;;;;22.05;14.60;;;;;;;12.97;64.91;93349.06;4840455;29;20067;-77
2024/01/26 11:32:51;;;;;;;22.15;14.93;;;;;;;12.46;68.69;93345.09;4840677;29;20105;-79
2024/01/26 11:35:18;;;;;;;19.67;14.50;;;;;;;12.39;70.25;93347.28;4839996;29;20045;-77
2024/01/26 11:37:45;;;;;;;24.13;15.77;;;;;;;12.00;73.13;93340.22;4823299;29;20071;-80
2024/01/26 11:40:11;;;;;;;15.63;10.75;;;;;;;12.06;72.29;93347.00;4840611;29;20050;-78
2024/01/26 11:42:37;;;;;;;19.45;12.50;;;;;;;12.04;71.58;93342.00;4839217;29;20071;-77
2024/01/26 11:45:08;;;;;;;19.95;14.38;;;;;;;12.13;70.84;93346.69;4839739;29;20050;-77
2024/01/26 11:47:41;;;;;;;21.38;13.23;;;;;;;12.15;71.63;93334.84;4839618;29;20130;-79
2024/01/26 11:50:08;;;;;;;19.92;12.85;;;;;;;12.04;70.19;93335.97;4840239;29;20065;-78
2024/01/26 11:52:35;;;;;;;20.48;13.18;;;;;;;12.04;70.25;93335.97;4840575;29;20041;-78